sensor_id;sensor_type;location;lat;lon;timestamp;temperature;humidity
36458;DHT22;22480;50.546;12.292;2023-02-26T00:01:14;-3.00;99.90
36458;DHT22;22480;50.546;12.292;2023-02-26T00:03:41;-3.00;99.90
36458;DHT22;22480;50.546;12.292;2023-02-26T00:06:07;-3.00;99.90
36458;DHT22;22480;50.546;12.292;2023-02-26T00:08:33;-3.00;99.90
36458;DHT22;22480;50.546;12.292;2023-02-26T00:10:59;-3.00;99.90
36458;DHT22;22480;50.546;12.292;2023-02-26T00:13:28;-3.00;99.90
36458;DHT22;22480;50.546;12.292;2023-02-26T00:15:58;-3.00;99.90
36458;DHT22;22480;50.546;12.292;2023-02-26T00:18:24;-3.00;99.90
36458;DHT22;22480;50.546;12.292;2023-02-26T00:20:50;-3.00;99.90
36458;DHT22;22480;50.546;12.292;2023-02-26T00:23:16;-3.00;99.90
36458;DHT22;22480;50.546;12.292;2023-02-26T00:25:43;-3.00;99.90
36458;DHT22;22480;50.546;12.292;2023-02-26T00:28:09;-3.00;99.90
36458;DHT22;22480;50.546;12.292;2023-02-26T00:30:36;-3.00;99.90
36458;DHT22;22480;50.546;12.292;2023-02-26T00:33:02;-3.00;99.90
36458;DHT22;22480;50.546;12.292;2023-02-26T00:35:30;-3.00;99.90
36458;DHT22;22480;50.546;12.292;2023-02-26T00:38:09;-3.00;99.90
36458;DHT22;22480;50.546;12.292;2023-02-26T00:40:49;-3.00;99.90
36458;DHT22;22480;50.546;12.292;2023-02-26T00:43:21;-3.00;99.90
36458;DHT22;22480;50.546;12.292;2023-02-26T00:46:34;-3.00;99.90
36458;DHT22;22480;50.546;12.292;2023-02-26T00:52:16;-3.00;99.90
36458;DHT22;22480;50.546;12.292;2023-02-26T00:54:44;-2.90;99.90
36458;DHT22;22480;50.546;12.292;2023-02-26T00:57:13;-2.90;99.90
36458;DHT22;22480;50.546;12.292;2023-02-26T00:59:39;-2.90;99.90
36458;DHT22;22480;50.546;12.292;2023-02-26T01:02:04;-2.90;99.90
36458;DHT22;22480;50.546;12.292;2023-02-26T01:04:30;-2.90;99.90
36458;DHT22;22480;50.546;12.292;2023-02-26T01:06:57;-2.90;99.90
36458;DHT22;22480;50.546;12.292;2023-02-26T01:09:27;-2.90;99.90
36458;DHT22;22480;50.546;12.292;2023-02-26T01:11:58;-3.00;99.90
36458;DHT22;22480;50.546;12.292;2023-02-26T01:14:26;-3.00;99.90
36458;DHT22;22480;50.546;12.292;2023-02-26T01:17:05;-3.00;99.90
36458;DHT22;22480;50.546;12.292;2023-02-26T01:22:41;-3.00;99.90
36458;DHT22;22480;50.546;12.292;2023-02-26T01:25:15;-3.00;99.90
36458;DHT22;22480;50.546;12.292;2023-02-26T01:27:42;-3.00;99.90
36458;DHT22;22480;50.546;12.292;2023-02-26T01:30:09;-3.10;99.90
36458;DHT22;22480;50.546;12.292;2023-02-26T01:35:47;-3.10;99.90
36458;DHT22;22480;50.546;12.292;2023-02-26T01:48:57;-3.10;99.90
36458;DHT22;22480;50.546;12.292;2023-02-26T01:54:07;-3.20;99.90
36458;DHT22;22480;50.546;12.292;2023-02-26T01:56:33;-3.20;99.90
36458;DHT22;22480;50.546;12.292;2023-02-26T01:59:00;-3.10;99.90
36458;DHT22;22480;50.546;12.292;2023-02-26T02:01:34;-3.20;99.90
36458;DHT22;22480;50.546;12.292;2023-02-26T02:04:02;-3.20;99.90
36458;DHT22;22480;50.546;12.292;2023-02-26T02:06:29;-3.10;99.90
36458;DHT22;22480;50.546;12.292;2023-02-26T02:08:55;-3.10;99.90
36458;DHT22;22480;50.546;12.292;2023-02-26T02:11:22;-3.20;99.90
36458;DHT22;22480;50.546;12.292;2023-02-26T02:22:25;-3.20;99.90
36458;DHT22;22480;50.546;12.292;2023-02-26T02:33:33;-3.10;99.90
36458;DHT22;22480;50.546;12.292;2023-02-26T02:36:06;-3.10;99.90
36458;DHT22;22480;50.546;12.292;2023-02-26T02:38:41;-3.10;99.90
36458;DHT22;22480;50.546;12.292;2023-02-26T02:44:23;-3.10;99.90
36458;DHT22;22480;50.546;12.292;2023-02-26T02:46:52;-3.10;99.90
36458;DHT22;22480;50.546;12.292;2023-02-26T02:49:26;-3.10;99.90
36458;DHT22;22480;50.546;12.292;2023-02-26T02:52:00;-3.10;99.90
36458;DHT22;22480;50.546;12.292;2023-02-26T02:54:41;-3.10;99.90
36458;DHT22;22480;50.546;12.292;2023-02-26T02:59:44;-3.10;99.90
36458;DHT22;22480;50.546;12.292;2023-02-26T03:04:39;-3.00;99.90
36458;DHT22;22480;50.546;12.292;2023-02-26T03:07:06;-3.00;99.90
36458;DHT22;22480;50.546;12.292;2023-02-26T03:09:32;-3.10;99.90
36458;DHT22;22480;50.546;12.292;2023-02-26T03:11:58;-3.00;99.90
36458;DHT22;22480;50.546;12.292;2023-02-26T03:14:25;-3.00;99.90
36458;DHT22;22480;50.546;12.292;2023-02-26T03:20:18;-3.00;99.90
36458;DHT22;22480;50.546;12.292;2023-02-26T03:30:23;-3.00;99.90
36458;DHT22;22480;50.546;12.292;2023-02-26T03:33:08;-3.00;99.90
36458;DHT22;22480;50.546;12.292;2023-02-26T03:36:06;-3.00;99.90
36458;DHT22;22480;50.546;12.292;2023-02-26T03:39:04;-3.00;99.90
36458;DHT22;22480;50.546;12.292;2023-02-26T03:41:54;-3.00;99.90
36458;DHT22;22480;50.546;12.292;2023-02-26T03:44:39;-3.00;99.90
36458;DHT22;22480;50.546;12.292;2023-02-26T03:47:10;-3.00;99.90
36458;DHT22;22480;50.546;12.292;2023-02-26T03:49:49;-3.00;99.90
36458;DHT22;22480;50.546;12.292;2023-02-26T03:52:20;-3.00;99.90
36458;DHT22;22480;50.546;12.292;2023-02-26T03:55:14;-3.00;99.90
36458;DHT22;22480;50.546;12.292;2023-02-26T03:58:07;-3.00;99.90
36458;DHT22;22480;50.546;12.292;2023-02-26T04:00:42;-3.00;99.90
36458;DHT22;22480;50.546;12.292;2023-02-26T04:03:31;-3.00;99.90
36458;DHT22;22480;50.546;12.292;2023-02-26T04:05:58;-3.00;99.90
36458;DHT22;22480;50.546;12.292;2023-02-26T04:08:25;-3.00;99.90
36458;DHT22;22480;50.546;12.292;2023-02-26T04:10:54;-3.00;99.90
36458;DHT22;22480;50.546;12.292;2023-02-26T04:13:22;-3.00;99.90
36458;DHT22;22480;50.546;12.292;2023-02-26T04:15:48;-3.00;99.90
36458;DHT22;22480;50.546;12.292;2023-02-26T04:18:14;-3.00;99.90
36458;DHT22;22480;50.546;12.292;2023-02-26T04:20:40;-2.90;99.90
36458;DHT22;22480;50.546;12.292;2023-02-26T04:23:06;-2.90;99.90
36458;DHT22;22480;50.546;12.292;2023-02-26T04:25:32;-2.90;99.90
36458;DHT22;22480;50.546;12.292;2023-02-26T04:27:59;-2.90;99.90
36458;DHT22;22480;50.546;12.292;2023-02-26T04:30:24;-2.90;99.90
36458;DHT22;22480;50.546;12.292;2023-02-26T04:32:50;-2.90;99.90
36458;DHT22;22480;50.546;12.292;2023-02-26T04:35:16;-2.90;99.90
36458;DHT22;22480;50.546;12.292;2023-02-26T04:37:42;-2.90;99.90
36458;DHT22;22480;50.546;12.292;2023-02-26T04:40:10;-2.90;99.90
36458;DHT22;22480;50.546;12.292;2023-02-26T04:42:36;-2.90;99.90
36458;DHT22;22480;50.546;12.292;2023-02-26T04:45:02;-2.90;99.90
36458;DHT22;22480;50.546;12.292;2023-02-26T04:47:29;-2.90;99.90
36458;DHT22;22480;50.546;12.292;2023-02-26T04:49:55;-2.90;99.90
36458;DHT22;22480;50.546;12.292;2023-02-26T04:52:20;-2.90;99.90
36458;DHT22;22480;50.546;12.292;2023-02-26T04:54:47;-2.90;99.90
36458;DHT22;22480;50.546;12.292;2023-02-26T04:57:14;-2.90;99.90
36458;DHT22;22480;50.546;12.292;2023-02-26T04:59:40;-2.90;99.90
36458;DHT22;22480;50.546;12.292;2023-02-26T05:02:06;-2.90;99.90
36458;DHT22;22480;50.546;12.292;2023-02-26T05:04:36;-2.90;99.90
36458;DHT22;22480;50.546;12.292;2023-02-26T05:07:02;-2.90;99.90
36458;DHT22;22480;50.546;12.292;2023-02-26T05:09:27;-2.90;99.90
36458;DHT22;22480;50.546;12.292;2023-02-26T05:11:53;-2.90;99.90
36458;DHT22;22480;50.546;12.292;2023-02-26T05:14:19;-2.90;99.90
36458;DHT22;22480;50.546;12.292;2023-02-26T05:16:47;-2.90;99.90
36458;DHT22;22480;50.546;12.292;2023-02-26T05:19:13;-2.90;99.90
36458;DHT22;22480;50.546;12.292;2023-02-26T05:21:39;-2.90;99.90
36458;DHT22;22480;50.546;12.292;2023-02-26T05:24:05;-2.90;99.90
36458;DHT22;22480;50.546;12.292;2023-02-26T05:26:30;-2.90;99.90
36458;DHT22;22480;50.546;12.292;2023-02-26T05:28:56;-2.90;99.90
36458;DHT22;22480;50.546;12.292;2023-02-26T05:31:22;-2.80;99.90
36458;DHT22;22480;50.546;12.292;2023-02-26T05:33:48;-2.80;99.90
36458;DHT22;22480;50.546;12.292;2023-02-26T05:36:13;-2.80;99.90
36458;DHT22;22480;50.546;12.292;2023-02-26T05:38:39;-2.80;99.90
36458;DHT22;22480;50.546;12.292;2023-02-26T05:41:05;-2.80;99.90
36458;DHT22;22480;50.546;12.292;2023-02-26T05:43:30;-2.80;99.90
36458;DHT22;22480;50.546;12.292;2023-02-26T05:45:57;-2.80;99.90
36458;DHT22;22480;50.546;12.292;2023-02-26T05:48:23;-2.80;99.90
36458;DHT22;22480;50.546;12.292;2023-02-26T05:50:49;-2.80;99.90
36458;DHT22;22480;50.546;12.292;2023-02-26T05:53:15;-2.80;99.90
36458;DHT22;22480;50.546;12.292;2023-02-26T05:55:41;-2.80;99.90
36458;DHT22;22480;50.546;12.292;2023-02-26T05:58:07;-2.80;99.90
36458;DHT22;22480;50.546;12.292;2023-02-26T06:00:33;-2.80;99.90
36458;DHT22;22480;50.546;12.292;2023-02-26T06:02:58;-2.80;99.90
36458;DHT22;22480;50.546;12.292;2023-02-26T06:05:24;-2.80;99.90
36458;DHT22;22480;50.546;12.292;2023-02-26T06:07:50;-2.80;99.90
36458;DHT22;22480;50.546;12.292;2023-02-26T06:10:16;-2.80;99.90
36458;DHT22;22480;50.546;12.292;2023-02-26T06:12:41;-2.80;99.90
36458;DHT22;22480;50.546;12.292;2023-02-26T06:15:08;-2.80;99.90
36458;DHT22;22480;50.546;12.292;2023-02-26T06:17:34;-2.70;99.90
36458;DHT22;22480;50.546;12.292;2023-02-26T06:20:00;-2.70;99.90
36458;DHT22;22480;50.546;12.292;2023-02-26T06:22:28;-2.70;99.90
36458;DHT22;22480;50.546;12.292;2023-02-26T06:24:54;-2.70;99.90
36458;DHT22;22480;50.546;12.292;2023-02-26T06:27:20;-2.70;99.90
36458;DHT22;22480;50.546;12.292;2023-02-26T06:29:46;-2.70;99.90
36458;DHT22;22480;50.546;12.292;2023-02-26T06:32:12;-2.60;99.90
36458;DHT22;22480;50.546;12.292;2023-02-26T06:34:37;-2.70;99.90
36458;DHT22;22480;50.546;12.292;2023-02-26T06:37:03;-2.60;99.90
36458;DHT22;22480;50.546;12.292;2023-02-26T06:39:29;-2.70;99.90
36458;DHT22;22480;50.546;12.292;2023-02-26T06:41:54;-2.60;99.90
36458;DHT22;22480;50.546;12.292;2023-02-26T06:44:20;-2.60;99.90
36458;DHT22;22480;50.546;12.292;2023-02-26T06:46:46;-2.50;99.90
36458;DHT22;22480;50.546;12.292;2023-02-26T06:49:11;-2.50;99.90
36458;DHT22;22480;50.546;12.292;2023-02-26T06:51:37;-2.50;99.90
36458;DHT22;22480;50.546;12.292;2023-02-26T06:54:03;-2.50;99.90
36458;DHT22;22480;50.546;12.292;2023-02-26T06:56:29;-2.50;99.90
36458;DHT22;22480;50.546;12.292;2023-02-26T06:58:54;-2.40;99.90
36458;DHT22;22480;50.546;12.292;2023-02-26T07:01:20;-2.50;99.90
36458;DHT22;22480;50.546;12.292;2023-02-26T07:03:46;-2.40;99.90
36458;DHT22;22480;50.546;12.292;2023-02-26T07:06:15;-2.40;99.90
36458;DHT22;22480;50.546;12.292;2023-02-26T07:08:41;-2.40;99.90
36458;DHT22;22480;50.546;12.292;2023-02-26T07:11:07;-2.30;99.90
36458;DHT22;22480;50.546;12.292;2023-02-26T07:13:35;-2.30;99.90
36458;DHT22;22480;50.546;12.292;2023-02-26T07:16:05;-2.20;99.90
36458;DHT22;22480;50.546;12.292;2023-02-26T07:18:35;-2.20;99.90
36458;DHT22;22480;50.546;12.292;2023-02-26T07:21:02;-2.20;99.90
36458;DHT22;22480;50.546;12.292;2023-02-26T07:23:28;-2.20;99.90
36458;DHT22;22480;50.546;12.292;2023-02-26T07:25:53;-2.10;99.90
36458;DHT22;22480;50.546;12.292;2023-02-26T07:28:19;-2.10;99.90
36458;DHT22;22480;50.546;12.292;2023-02-26T07:30:45;-2.00;99.90
36458;DHT22;22480;50.546;12.292;2023-02-26T07:33:11;-2.00;99.90
36458;DHT22;22480;50.546;12.292;2023-02-26T07:35:37;-1.90;99.90
36458;DHT22;22480;50.546;12.292;2023-02-26T07:38:04;-1.90;99.90
36458;DHT22;22480;50.546;12.292;2023-02-26T07:40:29;-1.90;99.90
36458;DHT22;22480;50.546;12.292;2023-02-26T07:42:55;-1.90;99.90
36458;DHT22;22480;50.546;12.292;2023-02-26T07:45:21;-1.90;99.90
36458;DHT22;22480;50.546;12.292;2023-02-26T07:47:48;-1.80;99.90
36458;DHT22;22480;50.546;12.292;2023-02-26T07:50:14;-1.80;99.90
36458;DHT22;22480;50.546;12.292;2023-02-26T07:52:40;-1.70;99.90
36458;DHT22;22480;50.546;12.292;2023-02-26T07:55:07;-1.60;99.90
36458;DHT22;22480;50.546;12.292;2023-02-26T07:57:32;-1.50;99.90
36458;DHT22;22480;50.546;12.292;2023-02-26T07:59:58;-1.40;99.90
36458;DHT22;22480;50.546;12.292;2023-02-26T08:02:24;-1.40;99.90
36458;DHT22;22480;50.546;12.292;2023-02-26T08:04:50;-1.40;99.90
36458;DHT22;22480;50.546;12.292;2023-02-26T08:07:16;-1.40;99.90
36458;DHT22;22480;50.546;12.292;2023-02-26T08:09:42;-1.40;99.90
36458;DHT22;22480;50.546;12.292;2023-02-26T08:12:08;-1.20;99.90
36458;DHT22;22480;50.546;12.292;2023-02-26T08:14:34;-1.20;99.90
36458;DHT22;22480;50.546;12.292;2023-02-26T08:17:00;-1.10;99.90
36458;DHT22;22480;50.546;12.292;2023-02-26T08:19:25;-1.30;99.90
36458;DHT22;22480;50.546;12.292;2023-02-26T08:21:51;-1.30;99.90
36458;DHT22;22480;50.546;12.292;2023-02-26T08:24:20;-1.40;99.90
36458;DHT22;22480;50.546;12.292;2023-02-26T08:26:45;-1.40;99.90
36458;DHT22;22480;50.546;12.292;2023-02-26T08:29:11;-1.50;99.90
36458;DHT22;22480;50.546;12.292;2023-02-26T08:31:37;-1.50;99.90
36458;DHT22;22480;50.546;12.292;2023-02-26T08:34:02;-1.50;99.90
36458;DHT22;22480;50.546;12.292;2023-02-26T08:36:29;-1.50;99.90
36458;DHT22;22480;50.546;12.292;2023-02-26T08:38:55;-1.40;99.90
36458;DHT22;22480;50.546;12.292;2023-02-26T08:41:20;-1.20;99.90
36458;DHT22;22480;50.546;12.292;2023-02-26T08:43:47;-0.90;99.90
36458;DHT22;22480;50.546;12.292;2023-02-26T08:46:13;-0.60;99.90
36458;DHT22;22480;50.546;12.292;2023-02-26T08:48:39;-0.50;99.90
36458;DHT22;22480;50.546;12.292;2023-02-26T08:51:04;-0.40;99.90
36458;DHT22;22480;50.546;12.292;2023-02-26T08:53:30;-0.50;99.90
36458;DHT22;22480;50.546;12.292;2023-02-26T08:55:56;-0.30;99.90
36458;DHT22;22480;50.546;12.292;2023-02-26T08:58:22;-0.30;99.90
36458;DHT22;22480;50.546;12.292;2023-02-26T09:00:48;-0.30;99.90
36458;DHT22;22480;50.546;12.292;2023-02-26T09:03:14;-0.40;99.90
36458;DHT22;22480;50.546;12.292;2023-02-26T09:05:40;-0.40;99.90
36458;DHT22;22480;50.546;12.292;2023-02-26T09:08:06;-0.30;99.90
36458;DHT22;22480;50.546;12.292;2023-02-26T09:10:32;-0.40;99.90
36458;DHT22;22480;50.546;12.292;2023-02-26T09:12:58;-0.40;99.90
36458;DHT22;22480;50.546;12.292;2023-02-26T09:15:23;-0.50;99.90
36458;DHT22;22480;50.546;12.292;2023-02-26T09:17:49;-0.60;99.90
36458;DHT22;22480;50.546;12.292;2023-02-26T09:20:16;-0.60;99.90
36458;DHT22;22480;50.546;12.292;2023-02-26T09:22:42;-0.70;99.90
36458;DHT22;22480;50.546;12.292;2023-02-26T09:25:09;-0.70;99.90
36458;DHT22;22480;50.546;12.292;2023-02-26T09:27:35;-0.50;99.90
36458;DHT22;22480;50.546;12.292;2023-02-26T09:30:02;-0.40;99.90
36458;DHT22;22480;50.546;12.292;2023-02-26T09:32:28;-0.30;99.90
36458;DHT22;22480;50.546;12.292;2023-02-26T09:34:54;-0.10;99.90
36458;DHT22;22480;50.546;12.292;2023-02-26T09:37:19;-0.20;99.90
36458;DHT22;22480;50.546;12.292;2023-02-26T09:39:45;-0.30;99.90
36458;DHT22;22480;50.546;12.292;2023-02-26T09:44:49;0.00;99.90
36458;DHT22;22480;50.546;12.292;2023-02-26T09:47:23;0.00;99.90
36458;DHT22;22480;50.546;12.292;2023-02-26T09:50:01;0.10;99.90
36458;DHT22;22480;50.546;12.292;2023-02-26T09:52:32;0.40;99.90
36458;DHT22;22480;50.546;12.292;2023-02-26T09:55:50;0.50;99.90
36458;DHT22;22480;50.546;12.292;2023-02-26T09:57:55;0.50;99.90
36458;DHT22;22480;50.546;12.292;2023-02-26T10:00:36;0.60;99.90
36458;DHT22;22480;50.546;12.292;2023-02-26T10:08:37;0.80;99.90
36458;DHT22;22480;50.546;12.292;2023-02-26T10:11:29;0.80;99.90
36458;DHT22;22480;50.546;12.292;2023-02-26T10:14:04;0.80;99.90
36458;DHT22;22480;50.546;12.292;2023-02-26T10:16:37;0.50;99.90
36458;DHT22;22480;50.546;12.292;2023-02-26T10:19:07;0.50;99.90
36458;DHT22;22480;50.546;12.292;2023-02-26T10:21:39;0.50;99.90
36458;DHT22;22480;50.546;12.292;2023-02-26T10:24:14;0.50;99.90
36458;DHT22;22480;50.546;12.292;2023-02-26T10:35:02;0.60;99.90
36458;DHT22;22480;50.546;12.292;2023-02-26T10:37:48;0.80;99.90
36458;DHT22;22480;50.546;12.292;2023-02-26T10:40:22;1.00;99.90
36458;DHT22;22480;50.546;12.292;2023-02-26T10:42:56;1.10;99.90
36458;DHT22;22480;50.546;12.292;2023-02-26T10:45:54;1.00;99.90
36458;DHT22;22480;50.546;12.292;2023-02-26T10:48:59;1.00;99.90
36458;DHT22;22480;50.546;12.292;2023-02-26T10:51:36;1.10;99.90
36458;DHT22;22480;50.546;12.292;2023-02-26T10:54:12;1.00;99.90
36458;DHT22;22480;50.546;12.292;2023-02-26T10:56:39;0.90;99.90
36458;DHT22;22480;50.546;12.292;2023-02-26T10:59:05;1.10;99.90
36458;DHT22;22480;50.546;12.292;2023-02-26T11:01:31;1.10;99.90
36458;DHT22;22480;50.546;12.292;2023-02-26T11:04:06;1.20;99.90
36458;DHT22;22480;50.546;12.292;2023-02-26T11:06:45;1.10;99.90
36458;DHT22;22480;50.546;12.292;2023-02-26T11:09:26;1.00;99.90
36458;DHT22;22480;50.546;12.292;2023-02-26T11:11:56;0.90;99.90
36458;DHT22;22480;50.546;12.292;2023-02-26T11:14:26;1.10;99.90
36458;DHT22;22480;50.546;12.292;2023-02-26T11:16:54;1.20;99.90
36458;DHT22;22480;50.546;12.292;2023-02-26T11:19:28;1.30;99.90
36458;DHT22;22480;50.546;12.292;2023-02-26T11:21:55;1.20;99.90
36458;DHT22;22480;50.546;12.292;2023-02-26T11:27:00;0.80;99.90
36458;DHT22;22480;50.546;12.292;2023-02-26T11:29:39;0.80;99.90
36458;DHT22;22480;50.546;12.292;2023-02-26T11:32:12;0.80;99.90
36458;DHT22;22480;50.546;12.292;2023-02-26T11:34:45;0.80;99.90
36458;DHT22;22480;50.546;12.292;2023-02-26T11:37:12;0.80;99.90
36458;DHT22;22480;50.546;12.292;2023-02-26T11:39:41;0.90;99.90
36458;DHT22;22480;50.546;12.292;2023-02-26T11:42:09;0.90;99.90
36458;DHT22;22480;50.546;12.292;2023-02-26T11:44:39;1.00;99.90
36458;DHT22;22480;50.546;12.292;2023-02-26T11:47:14;0.90;99.90
36458;DHT22;22480;50.546;12.292;2023-02-26T11:49:53;0.40;99.90
36458;DHT22;22480;50.546;12.292;2023-02-26T11:52:40;0.30;99.90
36458;DHT22;22480;50.546;12.292;2023-02-26T11:55:28;0.40;99.90
36458;DHT22;22480;50.546;12.292;2023-02-26T11:57:55;0.40;99.90
36458;DHT22;22480;50.546;12.292;2023-02-26T12:00:28;0.40;99.90
36458;DHT22;22480;50.546;12.292;2023-02-26T12:03:06;0.60;99.90
36458;DHT22;22480;50.546;12.292;2023-02-26T12:05:35;0.50;99.90
36458;DHT22;22480;50.546;12.292;2023-02-26T12:08:04;0.50;99.90
36458;DHT22;22480;50.546;12.292;2023-02-26T12:10:47;0.60;99.90
36458;DHT22;22480;50.546;12.292;2023-02-26T12:13:19;0.80;99.90
36458;DHT22;22480;50.546;12.292;2023-02-26T12:21:42;0.40;99.90
36458;DHT22;22480;50.546;12.292;2023-02-26T12:30:14;0.10;99.90
36458;DHT22;22480;50.546;12.292;2023-02-26T12:33:06;-0.10;99.90
36458;DHT22;22480;50.546;12.292;2023-02-26T12:38:28;-0.40;99.90
36458;DHT22;22480;50.546;12.292;2023-02-26T12:43:37;-0.50;99.90
36458;DHT22;22480;50.546;12.292;2023-02-26T12:49:24;-0.50;99.90
36458;DHT22;22480;50.546;12.292;2023-02-26T12:52:00;-0.60;99.90
36458;DHT22;22480;50.546;12.292;2023-02-26T13:00:41;-0.50;99.90
36458;DHT22;22480;50.546;12.292;2023-02-26T13:16:33;0.40;99.90
36458;DHT22;22480;50.546;12.292;2023-02-26T13:19:12;0.50;99.90
36458;DHT22;22480;50.546;12.292;2023-02-26T13:21:50;0.50;99.90
36458;DHT22;22480;50.546;12.292;2023-02-26T13:24:25;0.70;99.90
36458;DHT22;22480;50.546;12.292;2023-02-26T13:26:53;0.60;99.90
36458;DHT22;22480;50.546;12.292;2023-02-26T13:29:37;0.50;99.90
36458;DHT22;22480;50.546;12.292;2023-02-26T13:32:13;0.70;99.90
36458;DHT22;22480;50.546;12.292;2023-02-26T13:34:53;0.80;99.90
36458;DHT22;22480;50.546;12.292;2023-02-26T13:37:26;0.90;99.90
36458;DHT22;22480;50.546;12.292;2023-02-26T13:54:34;0.40;99.90
36458;DHT22;22480;50.546;12.292;2023-02-26T14:02:50;1.10;99.90
36458;DHT22;22480;50.546;12.292;2023-02-26T14:10:32;0.60;99.90
36458;DHT22;22480;50.546;12.292;2023-02-26T14:13:37;0.30;99.90
36458;DHT22;22480;50.546;12.292;2023-02-26T14:24:15;-0.80;99.90
36458;DHT22;22480;50.546;12.292;2023-02-26T14:26:48;-0.90;99.90
36458;DHT22;22480;50.546;12.292;2023-02-26T14:29:21;-1.00;99.90
36458;DHT22;22480;50.546;12.292;2023-02-26T14:31:56;-0.90;99.90
36458;DHT22;22480;50.546;12.292;2023-02-26T14:34:28;-0.80;99.90
36458;DHT22;22480;50.546;12.292;2023-02-26T14:37:01;-0.60;99.90
36458;DHT22;22480;50.546;12.292;2023-02-26T14:39:33;0.20;99.90
36458;DHT22;22480;50.546;12.292;2023-02-26T14:42:04;1.20;99.90
36458;DHT22;22480;50.546;12.292;2023-02-26T14:44:37;1.20;99.90
36458;DHT22;22480;50.546;12.292;2023-02-26T14:47:04;0.50;99.90
36458;DHT22;22480;50.546;12.292;2023-02-26T14:49:36;-0.10;99.90
36458;DHT22;22480;50.546;12.292;2023-02-26T14:52:42;-0.50;99.90
36458;DHT22;22480;50.546;12.292;2023-02-26T14:58:17;-0.60;99.90
36458;DHT22;22480;50.546;12.292;2023-02-26T15:14:50;0.30;99.90
36458;DHT22;22480;50.546;12.292;2023-02-26T15:23:40;-0.10;99.90
36458;DHT22;22480;50.546;12.292;2023-02-26T15:26:11;-0.30;99.90
36458;DHT22;22480;50.546;12.292;2023-02-26T15:28:39;-0.40;99.90
36458;DHT22;22480;50.546;12.292;2023-02-26T15:31:09;-0.60;99.90
36458;DHT22;22480;50.546;12.292;2023-02-26T15:33:35;-0.70;99.90
36458;DHT22;22480;50.546;12.292;2023-02-26T15:36:07;-0.70;99.90
36458;DHT22;22480;50.546;12.292;2023-02-26T15:38:42;-0.70;99.90
36458;DHT22;22480;50.546;12.292;2023-02-26T15:41:09;-0.90;99.90
36458;DHT22;22480;50.546;12.292;2023-02-26T15:43:35;-0.90;99.90
36458;DHT22;22480;50.546;12.292;2023-02-26T15:46:01;-0.90;99.90
36458;DHT22;22480;50.546;12.292;2023-02-26T15:48:30;-0.90;99.90
36458;DHT22;22480;50.546;12.292;2023-02-26T15:51:00;-0.90;99.90
36458;DHT22;22480;50.546;12.292;2023-02-26T15:53:40;-1.00;99.90
36458;DHT22;22480;50.546;12.292;2023-02-26T15:56:10;-1.00;99.90
36458;DHT22;22480;50.546;12.292;2023-02-26T15:58:43;-1.10;99.90
36458;DHT22;22480;50.546;12.292;2023-02-26T16:01:23;-1.40;99.90
36458;DHT22;22480;50.546;12.292;2023-02-26T16:03:52;-1.70;99.90
36458;DHT22;22480;50.546;12.292;2023-02-26T16:06:41;-2.00;99.90
36458;DHT22;22480;50.546;12.292;2023-02-26T16:09:15;-2.20;99.90
36458;DHT22;22480;50.546;12.292;2023-02-26T16:11:43;-2.40;99.90
36458;DHT22;22480;50.546;12.292;2023-02-26T16:14:19;-2.70;99.90
36458;DHT22;22480;50.546;12.292;2023-02-26T16:16:51;-2.90;99.90
36458;DHT22;22480;50.546;12.292;2023-02-26T16:19:22;-3.10;99.90
36458;DHT22;22480;50.546;12.292;2023-02-26T16:21:54;-3.10;99.90
36458;DHT22;22480;50.546;12.292;2023-02-26T16:24:22;-3.30;99.90
36458;DHT22;22480;50.546;12.292;2023-02-26T16:26:52;-3.30;99.90
36458;DHT22;22480;50.546;12.292;2023-02-26T16:29:26;-3.40;99.90
36458;DHT22;22480;50.546;12.292;2023-02-26T16:31:56;-3.50;99.90
36458;DHT22;22480;50.546;12.292;2023-02-26T16:34:39;-3.50;99.90
36458;DHT22;22480;50.546;12.292;2023-02-26T16:37:32;-3.50;99.90
36458;DHT22;22480;50.546;12.292;2023-02-26T16:40:19;-3.40;99.90
36458;DHT22;22480;50.546;12.292;2023-02-26T16:45:24;-3.00;99.90
36458;DHT22;22480;50.546;12.292;2023-02-26T16:47:57;-2.80;99.90
36458;DHT22;22480;50.546;12.292;2023-02-26T16:50:28;-2.80;99.90
36458;DHT22;22480;50.546;12.292;2023-02-26T16:53:01;-2.90;99.90
36458;DHT22;22480;50.546;12.292;2023-02-26T16:55:34;-3.10;99.90
36458;DHT22;22480;50.546;12.292;2023-02-26T16:58:02;-3.30;99.90
36458;DHT22;22480;50.546;12.292;2023-02-26T17:00:30;-3.40;99.90
36458;DHT22;22480;50.546;12.292;2023-02-26T17:03:15;-3.60;99.90
36458;DHT22;22480;50.546;12.292;2023-02-26T17:05:58;-3.60;99.90
36458;DHT22;22480;50.546;12.292;2023-02-26T17:08:30;-3.80;99.90
36458;DHT22;22480;50.546;12.292;2023-02-26T17:11:02;-3.90;99.90
36458;DHT22;22480;50.546;12.292;2023-02-26T17:13:31;-4.00;99.90
36458;DHT22;22480;50.546;12.292;2023-02-26T17:16:00;-4.30;99.90
36458;DHT22;22480;50.546;12.292;2023-02-26T17:18:26;-4.50;99.90
36458;DHT22;22480;50.546;12.292;2023-02-26T17:20:52;-4.60;99.90
36458;DHT22;22480;50.546;12.292;2023-02-26T17:23:18;-4.70;99.90
36458;DHT22;22480;50.546;12.292;2023-02-26T17:25:49;-4.90;99.90
36458;DHT22;22480;50.546;12.292;2023-02-26T17:28:28;-5.10;99.90
36458;DHT22;22480;50.546;12.292;2023-02-26T17:30:54;-5.30;99.90
36458;DHT22;22480;50.546;12.292;2023-02-26T17:33:20;-5.40;99.90
36458;DHT22;22480;50.546;12.292;2023-02-26T17:35:46;-5.40;99.90
36458;DHT22;22480;50.546;12.292;2023-02-26T17:38:14;-5.50;99.90
36458;DHT22;22480;50.546;12.292;2023-02-26T17:40:42;-5.70;99.90
36458;DHT22;22480;50.546;12.292;2023-02-26T17:43:08;-5.90;99.90
36458;DHT22;22480;50.546;12.292;2023-02-26T17:45:35;-6.10;99.90
36458;DHT22;22480;50.546;12.292;2023-02-26T17:48:02;-6.20;99.90
36458;DHT22;22480;50.546;12.292;2023-02-26T17:53:05;-6.20;99.90
36458;DHT22;22480;50.546;12.292;2023-02-26T17:55:32;-6.40;99.90
36458;DHT22;22480;50.546;12.292;2023-02-26T17:58:00;-6.50;99.90
36458;DHT22;22480;50.546;12.292;2023-02-26T18:00:26;-6.50;99.90
36458;DHT22;22480;50.546;12.292;2023-02-26T18:02:52;-6.60;99.90
36458;DHT22;22480;50.546;12.292;2023-02-26T18:05:18;-6.70;99.90
36458;DHT22;22480;50.546;12.292;2023-02-26T18:07:45;-6.80;99.90
36458;DHT22;22480;50.546;12.292;2023-02-26T18:10:20;-6.80;99.90
36458;DHT22;22480;50.546;12.292;2023-02-26T18:12:47;-6.60;99.90
36458;DHT22;22480;50.546;12.292;2023-02-26T18:15:13;-6.50;99.90
36458;DHT22;22480;50.546;12.292;2023-02-26T18:17:39;-6.30;99.90
36458;DHT22;22480;50.546;12.292;2023-02-26T18:20:06;-6.20;99.90
36458;DHT22;22480;50.546;12.292;2023-02-26T18:22:33;-6.10;99.90
36458;DHT22;22480;50.546;12.292;2023-02-26T18:24:59;-5.90;99.90
36458;DHT22;22480;50.546;12.292;2023-02-26T18:27:26;-5.90;99.90
36458;DHT22;22480;50.546;12.292;2023-02-26T18:29:53;-5.90;99.90
36458;DHT22;22480;50.546;12.292;2023-02-26T18:32:21;-5.90;99.90
36458;DHT22;22480;50.546;12.292;2023-02-26T18:34:48;-6.00;99.90
36458;DHT22;22480;50.546;12.292;2023-02-26T18:37:17;-5.90;99.90
36458;DHT22;22480;50.546;12.292;2023-02-26T18:39:43;-5.80;99.90